createdAt,value
2023-02-21T00:00:39.847Z,84.86
2023-02-21T00:03:25.099Z,84.85
2023-02-21T00:06:10.203Z,84.85
2023-02-21T00:08:56.392Z,84.86
2023-02-21T00:11:41.536Z,85.07
2023-02-21T00:14:26.611Z,84.77
2023-02-21T00:17:11.745Z,84.82
2023-02-21T00:19:59.324Z,85.22
2023-02-21T00:22:44.605Z,85.02
2023-02-21T00:25:29.616Z,84.99
2023-02-21T00:28:14.612Z,85.30
2023-02-21T00:30:59.598Z,85.07
2023-02-21T00:33:44.534Z,85.10
2023-02-21T00:42:41.906Z,85.36
2023-02-21T00:45:26.864Z,85.24
2023-02-21T00:48:11.783Z,84.86
2023-02-21T00:50:56.783Z,85.02
2023-02-21T00:53:42.326Z,85.23
2023-02-21T00:56:27.407Z,85.66
2023-02-21T00:59:12.253Z,85.30
2023-02-21T01:01:57.219Z,85.73
2023-02-21T01:04:42.415Z,85.49
2023-02-21T01:07:27.415Z,85.41
2023-02-21T01:10:12.494Z,85.25
2023-02-21T01:12:57.666Z,85.43
2023-02-21T01:15:42.890Z,85.51
2023-02-21T01:18:27.837Z,85.49
2023-02-21T01:21:12.986Z,85.57
2023-02-21T01:23:58.296Z,85.41
2023-02-21T01:26:44.078Z,85.42
2023-02-21T01:29:28.965Z,85.82
2023-02-21T01:32:14.044Z,85.56
2023-02-21T01:34:59.030Z,85.79
2023-02-21T01:37:44.381Z,85.58
2023-02-21T01:40:29.349Z,85.57
2023-02-21T01:43:14.325Z,85.94
2023-02-21T01:45:59.386Z,86.12
2023-02-21T01:48:44.699Z,85.89
2023-02-21T01:51:29.633Z,85.90
2023-02-21T01:54:14.539Z,86.20
2023-02-21T01:56:59.515Z,85.88
2023-02-21T01:59:44.860Z,85.84
2023-02-21T02:02:29.836Z,85.96
2023-02-21T02:05:14.847Z,86.06
2023-02-21T02:07:59.790Z,86.01
2023-02-21T02:10:45.265Z,86.09
2023-02-21T02:13:11.619Z,85.82
2023-02-21T02:15:39.400Z,86.13
2023-02-21T02:18:07.271Z,85.93
2023-02-21T02:20:38.562Z,85.87
2023-02-21T02:23:06.517Z,86.13
2023-02-21T02:25:34.121Z,85.72
2023-02-21T02:28:01.903Z,86.09
2023-02-21T02:30:30.958Z,85.60
2023-02-21T02:32:58.595Z,85.73
2023-02-21T02:35:26.558Z,85.87
2023-02-21T02:37:54.182Z,85.75
2023-02-21T02:40:21.955Z,85.83
2023-02-21T02:42:49.511Z,85.46
2023-02-21T02:45:17.026Z,85.67
2023-02-21T02:47:44.985Z,85.94
2023-02-21T02:50:12.610Z,85.61
2023-02-21T02:52:41.514Z,85.79
2023-02-21T02:55:09.107Z,85.77
2023-02-21T02:57:41.092Z,85.91
2023-02-21T03:00:09.090Z,86.15
2023-02-21T03:02:36.698Z,85.76
2023-02-21T03:05:04.252Z,85.89
2023-02-21T03:07:31.804Z,85.91
2023-02-21T03:09:59.419Z,86.08
2023-02-21T03:12:27.373Z,86.09
2023-02-21T03:14:55.427Z,86.70
2023-02-21T03:17:23.213Z,86.12
2023-02-21T03:19:50.805Z,86.38
2023-02-21T03:22:18.356Z,86.25
2023-02-21T03:24:46.323Z,85.94
2023-02-21T03:27:13.888Z,85.86
2023-02-21T03:29:41.582Z,86.10
2023-02-21T03:32:10.916Z,86.35
2023-02-21T03:34:38.907Z,86.55
2023-02-21T03:37:06.766Z,86.40
2023-02-21T03:39:34.346Z,86.65
2023-02-21T03:42:02.141Z,86.84
2023-02-21T03:44:29.710Z,85.93
2023-02-21T03:46:57.328Z,86.43
2023-02-21T03:49:40.330Z,86.21
2023-02-21T03:52:09.956Z,86.25
2023-02-21T03:54:38.345Z,86.38
2023-02-21T03:57:05.932Z,86.61
2023-02-21T03:59:33.617Z,86.38
2023-02-21T04:02:01.684Z,86.22
2023-02-21T04:04:29.318Z,86.48
2023-02-21T04:06:56.927Z,86.61
2023-02-21T04:09:25.912Z,86.22
2023-02-21T04:11:53.452Z,86.35
2023-02-21T04:14:21.430Z,86.15
2023-02-21T04:16:49.174Z,86.05
2023-02-21T04:19:17.076Z,86.21
2023-02-21T04:21:44.724Z,86.24
2023-02-21T04:24:12.342Z,86.62
2023-02-21T04:26:40.281Z,86.14
2023-02-21T04:29:07.913Z,85.97
2023-02-21T04:31:35.652Z,86.28
2023-02-21T04:34:11.816Z,86.40
2023-02-21T04:36:40.375Z,86.44
2023-02-21T04:39:07.946Z,86.16
2023-02-21T04:41:35.981Z,86.20
2023-02-21T04:44:03.573Z,86.34
2023-02-21T04:46:31.245Z,86.12
2023-02-21T04:48:58.815Z,86.18
2023-02-21T04:51:26.623Z,85.77
2023-02-21T04:53:54.191Z,86.19
2023-02-21T04:56:22.155Z,86.09
2023-02-21T04:58:49.783Z,86.18
2023-02-21T05:01:17.693Z,86.15
2023-02-21T05:03:45.717Z,86.15
2023-02-21T05:06:13.367Z,85.88
2023-02-21T05:08:40.994Z,85.95
2023-02-21T05:11:08.968Z,86.22
2023-02-21T05:13:36.965Z,86.22
2023-02-21T05:16:04.959Z,85.93
2023-02-21T05:18:34.703Z,86.02
2023-02-21T05:21:03.396Z,85.69
2023-02-21T05:23:35.134Z,86.54
2023-02-21T05:26:03.387Z,86.25
2023-02-21T05:28:31.189Z,86.23
2023-02-21T05:31:00.953Z,86.11
2023-02-21T05:33:28.770Z,86.03
2023-02-21T05:35:56.421Z,86.32
2023-02-21T05:38:24.383Z,86.47
2023-02-21T05:40:52.093Z,86.32
2023-02-21T05:43:19.760Z,86.75
2023-02-21T05:45:47.339Z,86.47
2023-02-21T05:48:15.372Z,86.20
2023-02-21T05:50:43.217Z,86.33
2023-02-21T05:53:10.988Z,86.46
2023-02-21T05:55:38.665Z,86.38
2023-02-21T05:58:06.400Z,86.58
2023-02-21T06:00:34.031Z,86.48
2023-02-21T06:03:04.690Z,86.70
2023-02-21T06:05:32.614Z,86.58
2023-02-21T06:08:00.273Z,86.64
2023-02-21T06:10:28.341Z,86.89
2023-02-21T06:12:55.973Z,86.65
2023-02-21T06:15:24.204Z,86.37
2023-02-21T06:17:52.068Z,86.40
2023-02-21T06:20:19.845Z,86.55
2023-02-21T06:22:47.922Z,86.45
2023-02-21T06:25:15.515Z,86.23
2023-02-21T06:27:44.550Z,86.57
2023-02-21T06:30:12.535Z,86.85
2023-02-21T06:32:40.124Z,86.56
2023-02-21T06:35:08.086Z,86.60
2023-02-21T06:37:35.746Z,86.67
2023-02-21T06:40:05.513Z,86.69
2023-02-21T06:42:33.417Z,87.17
2023-02-21T06:45:01.010Z,86.66
2023-02-21T06:47:28.641Z,86.75
2023-02-21T06:49:56.428Z,86.95
2023-02-21T06:52:24.907Z,86.64
2023-02-21T06:54:52.744Z,86.74
2023-02-21T06:57:20.595Z,86.70
2023-02-21T06:59:48.191Z,86.59
2023-02-21T07:02:15.812Z,86.55
2023-02-21T07:04:44.033Z,86.69
2023-02-21T07:07:11.968Z,86.64
2023-02-21T07:09:39.625Z,86.63
2023-02-21T07:12:09.086Z,87.10
2023-02-21T07:14:37.262Z,86.73
2023-02-21T07:17:05.251Z,86.60
2023-02-21T07:19:33.472Z,86.62
2023-02-21T07:22:01.331Z,86.33
2023-02-21T07:24:29.055Z,86.37
2023-02-21T07:26:56.795Z,86.70
2023-02-21T07:29:24.552Z,86.43
2023-02-21T07:31:52.542Z,86.86
2023-02-21T07:34:22.922Z,86.45
2023-02-21T07:36:51.034Z,86.63
2023-02-21T07:39:18.666Z,86.30
2023-02-21T07:41:46.446Z,86.63
2023-02-21T07:44:15.591Z,86.71
2023-02-21T07:46:45.969Z,86.67
2023-02-21T07:49:13.798Z,86.66
2023-02-21T07:51:41.485Z,86.27
2023-02-21T07:54:09.200Z,86.19
2023-02-21T07:56:37.224Z,86.11
2023-02-21T07:59:05.519Z,86.11
2023-02-21T08:01:33.274Z,86.21
2023-02-21T08:04:02.102Z,86.16
2023-02-21T08:06:30.775Z,86.37
2023-02-21T08:08:58.976Z,86.37
2023-02-21T08:11:27.311Z,85.90
2023-02-21T08:13:55.090Z,85.90
2023-02-21T08:16:22.925Z,85.88
2023-02-21T08:18:51.497Z,85.67
2023-02-21T08:21:21.490Z,85.33
2023-02-21T08:23:49.910Z,85.78
2023-02-21T08:26:17.947Z,85.58
2023-02-21T08:28:45.681Z,85.60
2023-02-21T08:31:13.689Z,85.33
2023-02-21T08:33:42.009Z,85.73
2023-02-21T08:36:10.156Z,85.50
2023-02-21T08:38:38.086Z,85.39
2023-02-21T08:41:06.558Z,85.04
2023-02-21T08:43:34.744Z,85.45
2023-02-21T08:46:03.070Z,85.01
2023-02-21T08:48:31.477Z,85.25
2023-02-21T08:50:59.357Z,85.37
2023-02-21T08:53:27.132Z,85.52
2023-02-21T08:55:54.991Z,85.12
2023-02-21T08:58:23.062Z,85.47
2023-02-21T09:00:51.282Z,85.50
2023-02-21T09:03:19.303Z,85.41
2023-02-21T09:05:47.070Z,85.02
2023-02-21T09:08:15.408Z,85.12
2023-02-21T09:10:47.955Z,85.15
2023-02-21T09:13:16.186Z,85.00
2023-02-21T09:15:43.986Z,84.88
2023-02-21T09:18:12.141Z,85.30
2023-02-21T09:20:42.591Z,85.46
2023-02-21T09:23:10.807Z,84.86
2023-02-21T09:25:39.094Z,85.48
2023-02-21T09:28:07.384Z,85.41
2023-02-21T09:30:35.315Z,84.89
2023-02-21T09:33:03.537Z,85.01
2023-02-21T09:35:32.319Z,85.12
2023-02-21T09:38:00.580Z,85.02
2023-02-21T09:40:28.648Z,84.99
2023-02-21T09:42:56.471Z,85.12
2023-02-21T09:45:25.238Z,84.96
2023-02-21T09:47:53.439Z,85.37
2023-02-21T09:50:22.064Z,85.19
2023-02-21T09:52:49.975Z,85.45
2023-02-21T09:55:18.218Z,85.21
2023-02-21T09:57:46.211Z,85.29
2023-02-21T10:00:14.358Z,85.53
2023-02-21T10:02:42.705Z,85.17
2023-02-21T10:05:10.633Z,85.03
2023-02-21T10:07:38.482Z,85.51
2023-02-21T10:10:06.422Z,85.00
2023-02-21T10:12:36.363Z,85.23
2023-02-21T10:15:04.671Z,85.49
2023-02-21T10:17:32.670Z,85.28
2023-02-21T10:20:00.460Z,85.49
2023-02-21T10:22:28.362Z,85.39
2023-02-21T10:24:56.483Z,85.61
2023-02-21T10:27:24.716Z,85.71
2023-02-21T10:29:52.588Z,85.42
2023-02-21T10:32:21.040Z,85.70
2023-02-21T10:34:48.891Z,85.78
2023-02-21T10:37:17.509Z,85.57
2023-02-21T10:39:47.266Z,85.52
2023-02-21T10:42:15.239Z,85.42
2023-02-21T10:44:43.105Z,85.58
2023-02-21T10:47:11.292Z,85.54
2023-02-21T10:49:39.590Z,85.40
2023-02-21T10:52:07.988Z,85.44
2023-02-21T10:54:35.925Z,85.94
2023-02-21T10:57:03.734Z,85.41
2023-02-21T10:59:31.733Z,85.52
2023-02-21T11:01:59.925Z,85.64
2023-02-21T11:04:29.340Z,84.92
2023-02-21T11:06:57.254Z,84.74
2023-02-21T11:09:25.286Z,84.94
2023-02-21T11:11:53.156Z,85.11
2023-02-21T11:14:21.165Z,84.82
2023-02-21T11:16:49.906Z,85.10
2023-02-21T11:19:17.686Z,84.76
2023-02-21T11:21:45.792Z,84.86
2023-02-21T11:24:13.919Z,84.87
2023-02-21T11:26:42.160Z,84.71
2023-02-21T11:29:10.510Z,85.18
2023-02-21T11:31:38.574Z,84.43
2023-02-21T11:34:06.568Z,84.83
2023-02-21T11:36:34.522Z,84.69
2023-02-21T11:39:05.011Z,84.27
2023-02-21T11:41:33.274Z,84.64
2023-02-21T11:44:01.177Z,84.58
2023-02-21T11:46:29.166Z,84.91
2023-02-21T11:48:57.066Z,84.73
2023-02-21T11:51:25.113Z,84.60
2023-02-21T11:53:53.561Z,84.59
2023-02-21T11:56:21.487Z,83.90
2023-02-21T11:58:49.275Z,84.27
2023-02-21T12:01:17.946Z,83.97
2023-02-21T12:03:46.074Z,83.83
2023-02-21T12:06:14.699Z,84.41
2023-02-21T12:08:42.889Z,84.19
2023-02-21T12:11:10.724Z,83.62
2023-02-21T12:13:38.739Z,83.61
2023-02-21T12:16:07.133Z,83.67
2023-02-21T12:18:35.313Z,83.30
2023-02-21T12:21:03.263Z,83.46
2023-02-21T12:23:31.736Z,82.95
2023-02-21T12:25:59.917Z,83.53
2023-02-21T12:28:29.022Z,82.76
2023-02-21T12:30:57.388Z,82.27
2023-02-21T12:33:26.113Z,82.39
2023-02-21T12:35:54.029Z,82.00
2023-02-21T12:38:22.004Z,80.89
2023-02-21T12:40:50.071Z,80.30
2023-02-21T12:43:18.533Z,78.96
2023-02-21T12:45:47.003Z,78.55
2023-02-21T12:48:14.858Z,78.90
2023-02-21T12:50:42.666Z,79.66
2023-02-21T12:53:10.876Z,79.74
2023-02-21T12:55:40.427Z,79.75
2023-02-21T12:58:08.374Z,80.79
2023-02-21T13:00:36.383Z,80.57
2023-02-21T13:03:04.390Z,80.78
2023-02-21T13:05:32.723Z,81.10
2023-02-21T13:08:01.494Z,81.09
2023-02-21T13:10:29.331Z,80.88
2023-02-21T13:12:58.500Z,80.78
2023-02-21T13:15:27.101Z,80.83
2023-02-21T13:17:55.444Z,81.44
2023-02-21T13:20:24.069Z,81.07
2023-02-21T13:23:09.672Z,81.71
2023-02-21T13:25:37.729Z,82.27
2023-02-21T13:28:08.922Z,82.15
2023-02-21T13:30:37.966Z,82.35
2023-02-21T13:33:06.303Z,82.29
2023-02-21T13:35:34.375Z,81.86
2023-02-21T13:38:02.230Z,82.03
2023-02-21T13:40:30.367Z,81.91
2023-02-21T13:42:58.403Z,82.62
2023-02-21T13:45:26.225Z,81.84
2023-02-21T13:47:54.037Z,82.58
2023-02-21T13:50:22.450Z,82.05
2023-02-21T13:52:50.697Z,82.93
2023-02-21T13:55:19.151Z,82.40
2023-02-21T13:57:47.162Z,82.49
2023-02-21T14:00:14.982Z,82.53
2023-02-21T14:02:42.768Z,82.73
2023-02-21T14:05:11.137Z,82.38
2023-02-21T14:07:39.728Z,82.26
2023-02-21T14:10:07.604Z,82.04
2023-02-21T14:12:36.044Z,82.58
2023-02-21T14:15:06.487Z,82.52
2023-02-21T14:17:35.163Z,82.42
2023-02-21T14:20:04.608Z,82.10
2023-02-21T14:22:32.377Z,82.43
2023-02-21T14:25:00.213Z,82.34
2023-02-21T14:27:28.267Z,82.43
2023-02-21T14:29:56.376Z,82.31
2023-02-21T14:32:24.743Z,82.87
2023-02-21T14:34:54.546Z,82.64
2023-02-21T14:37:22.340Z,82.66
2023-02-21T14:39:50.135Z,82.87
2023-02-21T14:42:18.370Z,82.62
2023-02-21T14:44:46.675Z,82.85
2023-02-21T14:47:14.505Z,82.77
2023-02-21T14:49:42.603Z,82.59
2023-02-21T14:52:10.625Z,82.61
2023-02-21T14:54:38.790Z,82.58
2023-02-21T14:57:06.833Z,82.75
2023-02-21T14:59:34.716Z,82.91
2023-02-21T15:02:02.625Z,82.90
2023-02-21T15:04:30.775Z,83.02
2023-02-21T15:06:58.920Z,82.60
2023-02-21T15:09:27.439Z,82.93
2023-02-21T15:11:56.921Z,83.23
2023-02-21T15:14:24.745Z,83.23
2023-02-21T15:16:53.054Z,82.63
2023-02-21T15:19:21.755Z,83.08
2023-02-21T15:21:49.925Z,83.02
2023-02-21T15:24:17.820Z,82.81
2023-02-21T15:26:46.441Z,82.99
2023-02-21T15:29:14.451Z,83.24
2023-02-21T15:31:42.890Z,82.87
2023-02-21T15:34:11.667Z,82.92
2023-02-21T15:36:39.428Z,83.01
2023-02-21T15:39:07.754Z,82.79
2023-02-21T15:41:35.571Z,82.89
2023-02-21T15:44:03.462Z,82.97
2023-02-21T15:46:31.589Z,83.06
2023-02-21T15:48:59.532Z,83.18
2023-02-21T15:51:27.656Z,83.45
2023-02-21T15:53:55.563Z,83.44
2023-02-21T15:56:23.680Z,83.05
2023-02-21T15:58:51.886Z,83.13
2023-02-21T16:01:19.935Z,83.55
2023-02-21T16:03:48.025Z,83.64
2023-02-21T16:06:15.888Z,83.46
2023-02-21T16:08:43.893Z,83.05
2023-02-21T16:11:12.554Z,82.92
2023-02-21T16:13:40.437Z,83.09
2023-02-21T16:16:08.523Z,83.56
2023-02-21T16:18:36.616Z,83.58
2023-02-21T16:21:04.727Z,83.27
2023-02-21T16:23:32.638Z,83.59
2023-02-21T16:26:00.687Z,83.45
2023-02-21T16:28:28.502Z,83.85
2023-02-21T16:30:58.515Z,83.85
2023-02-21T16:33:26.727Z,83.46
2023-02-21T16:35:55.050Z,82.80
2023-02-21T16:38:22.888Z,84.00
2023-02-21T16:40:50.900Z,83.92
2023-02-21T16:43:19.451Z,83.72
2023-02-21T16:45:48.734Z,83.90
2023-02-21T16:48:17.062Z,84.23
2023-02-21T16:50:44.962Z,83.69
2023-02-21T16:53:13.014Z,84.00
2023-02-21T16:55:41.059Z,83.69
2023-02-21T16:58:09.240Z,84.30
2023-02-21T17:00:37.558Z,84.06
2023-02-21T17:03:05.468Z,84.36
2023-02-21T17:05:36.197Z,84.25
2023-02-21T17:08:04.078Z,84.33
2023-02-21T17:10:33.031Z,84.17
2023-02-21T17:13:02.819Z,84.64
2023-02-21T17:15:32.337Z,84.05
2023-02-21T17:18:00.297Z,84.13
2023-02-21T17:20:28.209Z,84.34
2023-02-21T17:22:56.152Z,84.81
2023-02-21T17:25:24.805Z,84.62
2023-02-21T17:27:53.047Z,84.72
2023-02-21T17:30:21.070Z,84.51
2023-02-21T17:32:49.063Z,84.47
2023-02-21T17:35:17.127Z,84.65
2023-02-21T17:37:45.370Z,84.66
2023-02-21T17:40:13.490Z,84.69
2023-02-21T17:42:41.414Z,85.25
2023-02-21T17:45:09.337Z,84.81
2023-02-21T17:47:37.234Z,85.12
2023-02-21T17:50:05.577Z,85.23
2023-02-21T17:52:33.534Z,85.10
2023-02-21T17:55:03.015Z,85.43
2023-02-21T17:57:36.073Z,85.31
2023-02-21T18:00:05.174Z,85.05
2023-02-21T18:02:33.432Z,85.64
2023-02-21T18:05:01.289Z,85.18
2023-02-21T18:07:32.462Z,85.38
2023-02-21T18:10:00.288Z,85.82
2023-02-21T18:12:28.650Z,85.32
2023-02-21T18:14:57.003Z,85.20
2023-02-21T18:17:24.805Z,85.42
2023-02-21T18:19:52.605Z,85.93
2023-02-21T18:22:20.555Z,85.63
2023-02-21T18:24:48.583Z,85.88
2023-02-21T18:27:17.271Z,85.83
2023-02-21T18:29:45.410Z,86.02
2023-02-21T18:32:13.379Z,85.96
2023-02-21T18:34:41.317Z,86.14
2023-02-21T18:37:09.918Z,86.08
2023-02-21T18:39:37.887Z,86.09
2023-02-21T18:42:05.677Z,86.43
2023-02-21T18:44:34.337Z,86.26
2023-02-21T18:47:02.397Z,86.51
2023-02-21T18:49:34.381Z,86.99
2023-02-21T18:52:04.509Z,86.89
2023-02-21T18:54:32.345Z,86.97
2023-02-21T18:57:00.535Z,86.51
2023-02-21T18:59:28.513Z,86.92
2023-02-21T19:01:56.570Z,87.05
2023-02-21T19:04:24.939Z,86.95
2023-02-21T19:06:52.841Z,86.94
2023-02-21T19:09:20.642Z,86.89
2023-02-21T19:11:48.445Z,86.93
2023-02-21T19:14:18.965Z,87.11
2023-02-21T19:16:47.280Z,86.98
2023-02-21T19:19:15.093Z,86.55
2023-02-21T19:21:42.989Z,86.55
2023-02-21T19:24:10.783Z,86.96
2023-02-21T19:26:38.693Z,87.11
2023-02-21T19:29:07.096Z,86.15
2023-02-21T19:31:35.064Z,86.52
2023-02-21T19:34:02.852Z,86.56
2023-02-21T19:36:31.203Z,86.30
2023-02-21T19:38:59.278Z,86.19
2023-02-21T19:41:27.511Z,86.82
2023-02-21T19:43:55.566Z,86.63
2023-02-21T19:46:23.404Z,86.40
2023-02-21T19:48:51.840Z,86.56
2023-02-21T19:51:20.087Z,86.27
2023-02-21T19:53:48.238Z,86.16
2023-02-21T19:56:16.130Z,86.39
2023-02-21T19:58:45.647Z,86.42
2023-02-21T20:01:13.755Z,86.51
2023-02-21T20:03:42.647Z,86.57
2023-02-21T20:06:11.094Z,86.84
2023-02-21T20:08:39.008Z,86.84
2023-02-21T20:11:07.042Z,86.64
2023-02-21T20:13:36.060Z,86.59
2023-02-21T20:16:04.167Z,87.00
2023-02-21T20:18:32.576Z,86.87
2023-02-21T20:21:01.161Z,86.87
2023-02-21T20:23:29.071Z,86.94
2023-02-21T20:25:57.048Z,87.09
2023-02-21T20:28:24.964Z,86.86
2023-02-21T20:30:53.247Z,86.74
2023-02-21T20:33:23.385Z,86.72
2023-02-21T20:35:51.719Z,86.47
2023-02-21T20:38:19.945Z,86.01
2023-02-21T20:40:47.874Z,86.30
2023-02-21T20:43:16.119Z,86.44
2023-02-21T20:45:44.608Z,86.18
2023-02-21T20:48:12.611Z,86.30
2023-02-21T20:50:41.973Z,86.23
2023-02-21T20:53:11.574Z,86.33
2023-02-21T20:55:40.920Z,86.30
2023-02-21T20:58:10.765Z,86.30
2023-02-21T21:00:38.734Z,86.44
2023-02-21T21:03:06.741Z,86.19
2023-02-21T21:05:34.855Z,86.31
2023-02-21T21:08:03.037Z,86.53
2023-02-21T21:10:31.025Z,86.37
2023-02-21T21:12:59.136Z,86.68
2023-02-21T21:15:27.015Z,86.09
2023-02-21T21:17:54.930Z,86.51
2023-02-21T21:20:22.885Z,86.18
2023-02-21T21:22:50.775Z,86.31
2023-02-21T21:25:18.853Z,86.13
2023-02-21T21:27:47.709Z,86.14
2023-02-21T21:30:18.531Z,86.53
2023-02-21T21:32:47.222Z,86.09
2023-02-21T21:35:17.226Z,86.45
2023-02-21T21:37:44.974Z,86.31
2023-02-21T21:40:17.145Z,86.32
2023-02-21T21:42:45.306Z,86.25
2023-02-21T21:45:18.880Z,86.63
2023-02-21T21:47:46.707Z,85.92
2023-02-21T21:50:15.832Z,85.84
2023-02-21T21:52:44.602Z,86.18
2023-02-21T21:55:16.542Z,85.81
2023-02-21T21:57:44.767Z,85.85
2023-02-21T22:00:21.818Z,85.93
2023-02-21T22:02:49.943Z,86.32
2023-02-21T22:05:17.726Z,85.79
2023-02-21T22:07:45.949Z,85.82
2023-02-21T22:10:13.816Z,85.95
2023-02-21T22:12:41.813Z,85.86
2023-02-21T22:15:10.779Z,85.83
2023-02-21T22:17:39.298Z,85.95
2023-02-21T22:20:17.417Z,85.65
2023-02-21T22:22:46.133Z,85.80
2023-02-21T22:25:14.121Z,86.26
2023-02-21T22:27:41.826Z,86.18
2023-02-21T22:30:10.688Z,86.23
2023-02-21T22:32:41.111Z,85.96
2023-02-21T22:35:18.365Z,86.13
2023-02-21T22:37:46.231Z,86.40
2023-02-21T22:40:17.474Z,86.38
2023-02-21T22:42:45.565Z,86.28
2023-02-21T22:45:13.277Z,86.53
2023-02-21T22:47:41.001Z,86.46
2023-02-21T22:50:09.033Z,86.52
2023-02-21T22:52:36.685Z,86.18
2023-02-21T22:55:04.744Z,86.17
2023-02-21T22:57:33.091Z,86.17
2023-02-21T23:00:02.250Z,86.28
2023-02-21T23:02:30.791Z,86.41
2023-02-21T23:04:59.732Z,86.20
2023-02-21T23:07:27.773Z,86.48
2023-02-21T23:09:55.800Z,86.26
2023-02-21T23:12:23.504Z,86.74
2023-02-21T23:14:51.744Z,86.34
2023-02-21T23:17:19.424Z,85.90
2023-02-21T23:19:47.497Z,86.30
2023-02-21T23:22:15.953Z,86.20
2023-02-21T23:24:43.597Z,86.25
2023-02-21T23:27:11.434Z,86.37
2023-02-21T23:29:39.557Z,86.38
2023-02-21T23:32:10.765Z,86.14
2023-02-21T23:34:41.501Z,86.14
2023-02-21T23:37:09.177Z,86.30
2023-02-21T23:39:37.035Z,86.20
2023-02-21T23:42:04.744Z,85.99
2023-02-21T23:44:36.526Z,86.62
2023-02-21T23:47:06.204Z,86.01
2023-02-21T23:49:33.887Z,86.35
2023-02-21T23:52:03.130Z,86.29
2023-02-21T23:54:30.782Z,86.52
2023-02-21T23:57:01.006Z,86.22
2023-02-21T23:59:28.713Z,86.19
